Terminal Aerodrome Forecast
Issued by NWS Nashville, TN

Home | Current Version | Previous Version | Text Only | Print | Product List | Glossary On
Versions: 1 2 3 4 5 6 7 8 9 10 11 12 13
387
FTUS44 KOHX 232320
TAFBNA
TAF
KBNA 232320Z 2400/2424 28005KT P6SM VCTS SCT050CB BKN150
     FM240400 30003KT 6SM BR FEW050 SCT150
     FM241000 32002KT 5SM BR SCT150
     FM241200 21005KT P6SM SCT040=

USA.gov is the U.S. government's official web portal to all federal, state and local government web resources and services.